Main page
METAR-TAF:

METAR-TAF

Airports :

Cairns, Australia

Cairns Airport

latitude: 16-53S, longitude: 145-45E, elevation: 3 m

Current weather observation

The report was made 17 minutes ago, at 02:00 UTC
Wind 14 kt from the East/Southeast
Temperature 28°C
Humidity 62%
Pressure 1015 hPa
Visibility 10 km or more
Few clouds at a height of 2500 ft

METAR: YBCS 270200Z 12014KT 9999 FEW025 28/20 Q1015 NOSIG

Time: 12:17 (02:17 UTC)

Forecast

The report was made 2 hours and 57 minutes ago, at 23:20 UTC
Forecast valid from 27 at 00 UTC to 27 at 24 UTC
Wind 12 kt from the Southeast
Visibility 10 km or more
Few clouds at a height of 2800 ft
From 27 at 0800 UTC
Wind 8 kt from the South
Visibility 10 km or more
Few clouds at a height of 2500 ft
From 27 at 2300 UTC
Wind 12 kt from the Southeast
Visibility 10 km or more
Scattered clouds at a height of 2800 ft

TAF: YBCS 262320Z 2700/2724 14012KT 9999 FEW028 FM270800 17008KT 9999 FEW025 FM272300 14012KT 9999 SCT028

Weather observations and forecasts of more than 4000 airports (METAR and TAF reports).

The available stations are represented by yellow and red dots on the map.

Hover mouse over dot to see the name of the station.

Then click to see weather observations and forecasts.

To change the map : click on the green buttons with a black cross to zoom in, on the green button with a dash to zoom out, or on the green arrows for adjacent maps.


METAR-TAF: